createdAt,value
2023-02-21T00:00:20.631Z,97548.74
2023-02-21T00:03:10.278Z,97545.34
2023-02-21T00:06:00.105Z,97549.61
2023-02-21T00:08:49.913Z,97545.39
2023-02-21T00:11:39.674Z,97550.53
2023-02-21T00:14:29.234Z,97542.05
2023-02-21T00:17:19.054Z,97542.94
2023-02-21T00:20:08.675Z,97529.36
2023-02-21T00:22:58.641Z,97523.45
2023-02-21T00:25:48.556Z,97532.78
2023-02-21T00:28:38.508Z,97519.20
2023-02-21T00:31:28.234Z,97522.58
2023-02-21T00:34:18.012Z,97522.58
2023-02-21T00:37:08.072Z,97519.19
2023-02-21T00:39:57.583Z,97525.15
2023-02-21T00:42:47.276Z,97519.28
2023-02-21T00:45:36.975Z,97521.00
2023-02-21T00:48:26.552Z,97519.37
2023-02-21T00:51:16.863Z,97517.77
2023-02-21T00:54:06.899Z,97512.80
2023-02-21T00:56:56.700Z,97515.39
2023-02-21T00:59:46.439Z,97507.87
2023-02-21T01:02:37.957Z,97507.17
2023-02-21T01:05:27.888Z,97498.06
2023-02-21T01:08:18.332Z,97499.06
2023-02-21T01:11:07.900Z,97495.86
2023-02-21T01:13:57.374Z,97490.95
2023-02-21T01:16:51.569Z,97495.33
2023-02-21T01:19:41.546Z,97479.45
2023-02-21T01:22:31.518Z,97487.23
2023-02-21T01:25:21.408Z,97489.92
2023-02-21T01:28:13.384Z,97481.59
2023-02-21T01:31:03.364Z,97477.45
2023-02-21T01:33:57.932Z,97487.70
2023-02-21T01:36:47.668Z,97483.59
2023-02-21T01:39:37.260Z,97482.84
2023-02-21T01:42:28.933Z,97487.95
2023-02-21T01:45:43.964Z,97478.72
2023-02-21T01:48:36.462Z,97481.36
2023-02-21T01:51:28.922Z,97480.58
2023-02-21T01:54:19.229Z,97480.61
2023-02-21T01:57:08.893Z,97475.61
2023-02-21T01:59:59.681Z,97478.20
2023-02-21T02:03:02.173Z,97477.42
2023-02-21T02:05:52.789Z,97482.56
2023-02-21T02:08:45.492Z,97478.38
2023-02-21T02:11:49.971Z,97480.13
2023-02-21T02:14:39.965Z,97487.73
2023-02-21T02:17:36.193Z,97481.02
2023-02-21T02:20:27.313Z,97479.36
2023-02-21T02:23:26.228Z,97477.69
2023-02-21T02:26:29.478Z,97476.81
2023-02-21T02:29:13.275Z,97480.98
2023-02-21T02:31:46.068Z,97479.25
2023-02-21T02:34:43.254Z,97483.31
2023-02-21T02:37:37.596Z,97484.16
2023-02-21T02:40:32.289Z,97487.51
2023-02-21T02:43:28.604Z,97487.44
2023-02-21T02:46:14.470Z,97479.74
2023-02-21T02:48:49.654Z,97477.16
2023-02-21T02:51:22.895Z,97483.80
2023-02-21T02:53:54.352Z,97469.40
2023-02-21T02:56:27.687Z,97474.27
2023-02-21T02:59:05.372Z,97469.28
2023-02-21T03:01:52.511Z,97464.19
2023-02-21T03:04:42.408Z,97472.63
2023-02-21T03:07:39.653Z,97471.73
2023-02-21T03:10:17.936Z,97472.58
2023-02-21T03:13:10.796Z,97469.20
2023-02-21T03:15:51.631Z,97460.79
2023-02-21T03:18:38.657Z,97470.95
2023-02-21T03:21:14.521Z,97467.62
2023-02-21T03:23:50.040Z,97476.06
2023-02-21T03:26:22.448Z,97469.34
2023-02-21T03:28:57.544Z,97474.47
2023-02-21T03:31:30.855Z,97474.50
2023-02-21T03:34:03.042Z,97478.59
2023-02-21T03:36:35.291Z,97471.22
2023-02-21T03:39:07.794Z,97476.38
2023-02-21T03:41:40.005Z,97467.93
2023-02-21T03:44:12.784Z,97467.96
2023-02-21T03:46:45.299Z,97467.17
2023-02-21T03:49:17.515Z,97467.23
2023-02-21T03:51:50.005Z,97466.41
2023-02-21T03:54:22.056Z,97464.77
2023-02-21T03:56:56.261Z,97464.02
2023-02-21T03:59:30.273Z,97461.53
2023-02-21T04:02:02.753Z,97466.67
2023-02-21T04:04:36.695Z,97454.89
2023-02-21T04:07:13.653Z,97457.45
2023-02-21T04:09:46.248Z,97460.91
2023-02-21T04:12:20.226Z,97464.33
2023-02-21T04:14:53.343Z,97465.20
2023-02-21T04:17:26.257Z,97461.88
2023-02-21T04:19:59.237Z,97458.55
2023-02-21T04:22:32.476Z,97466.94
2023-02-21T04:25:05.228Z,97470.43
2023-02-21T04:27:39.711Z,97465.44
2023-02-21T04:30:12.972Z,97469.70
2023-02-21T04:32:45.689Z,97479.03
2023-02-21T04:35:19.138Z,97482.40
2023-02-21T04:37:52.827Z,97480.75
2023-02-21T04:40:25.318Z,97484.17
2023-02-21T04:42:57.373Z,97484.22
2023-02-21T04:45:31.179Z,97487.60
2023-02-21T04:48:03.858Z,97486.80
2023-02-21T04:50:36.321Z,97487.61
2023-02-21T04:53:08.821Z,97493.56
2023-02-21T04:55:41.127Z,97494.42
2023-02-21T04:58:13.157Z,97490.22
2023-02-21T05:00:45.825Z,97497.81
2023-02-21T05:03:18.436Z,97502.86
2023-02-21T05:05:51.749Z,97502.05
2023-02-21T05:08:27.383Z,97496.13
2023-02-21T05:10:58.427Z,97509.59
2023-02-21T05:13:30.526Z,97496.13
2023-02-21T05:16:03.734Z,97496.95
2023-02-21T05:18:35.233Z,97499.48
2023-02-21T05:21:10.574Z,97497.77
2023-02-21T05:23:44.907Z,97506.21
2023-02-21T05:26:17.478Z,97501.15
2023-02-21T05:28:49.794Z,97496.05
2023-02-21T05:31:22.141Z,97498.46
2023-02-21T05:33:54.331Z,97499.27
2023-02-21T05:36:27.315Z,97503.41
2023-02-21T05:38:59.848Z,97503.27
2023-02-21T05:41:32.135Z,97505.67
2023-02-21T05:44:05.523Z,97509.78
2023-02-21T05:46:39.465Z,97500.47
2023-02-21T05:49:10.984Z,97500.34
2023-02-21T05:51:44.996Z,97504.27
2023-02-21T05:54:19.913Z,97509.20
2023-02-21T05:56:53.688Z,97496.28
2023-02-21T05:59:26.360Z,97497.80
2023-02-21T06:01:59.236Z,97502.61
2023-02-21T06:04:31.704Z,97504.05
2023-02-21T06:07:03.727Z,97505.78
2023-02-21T06:09:37.290Z,97502.50
2023-02-21T06:12:09.582Z,97503.69
2023-02-21T06:14:41.720Z,97500.16
2023-02-21T06:17:14.734Z,97504.77
2023-02-21T06:19:47.316Z,97506.47
2023-02-21T06:22:19.399Z,97496.69
2023-02-21T06:24:52.256Z,97503.77
2023-02-21T06:27:25.237Z,97502.09
2023-02-21T06:29:57.735Z,97503.47
2023-02-21T06:32:30.248Z,97498.64
2023-02-21T06:35:03.633Z,97502.86
2023-02-21T06:37:35.918Z,97493.46
2023-02-21T06:40:09.110Z,97492.75
2023-02-21T06:42:43.120Z,97486.59
2023-02-21T06:45:15.383Z,97503.98
2023-02-21T06:47:47.618Z,97503.03
2023-02-21T06:50:20.359Z,97506.20
2023-02-21T06:52:53.699Z,97511.03
2023-02-21T06:55:26.473Z,97507.19
2023-02-21T06:57:59.222Z,97514.22
2023-02-21T07:00:31.553Z,97511.72
2023-02-21T07:03:04.059Z,97512.61
2023-02-21T07:05:38.797Z,97506.80
2023-02-21T07:08:11.214Z,97507.62
2023-02-21T07:11:03.055Z,97509.36
2023-02-21T07:13:38.685Z,97510.23
2023-02-21T07:16:11.836Z,97512.84
2023-02-21T07:18:44.196Z,97521.25
2023-02-21T07:21:18.818Z,97512.88
2023-02-21T07:23:51.694Z,97506.31
2023-02-21T07:26:24.094Z,97510.60
2023-02-21T07:28:56.775Z,97525.86
2023-02-21T07:31:29.593Z,97518.12
2023-02-21T07:34:01.903Z,97518.12
2023-02-21T07:36:34.230Z,97519.77
2023-02-21T07:39:06.582Z,97516.30
2023-02-21T07:41:39.458Z,97522.90
2023-02-21T07:44:13.307Z,97521.97
2023-02-21T07:46:46.687Z,97518.45
2023-02-21T07:49:19.419Z,97523.40
2023-02-21T07:51:52.128Z,97524.94
2023-02-21T07:54:24.836Z,97527.34
2023-02-21T07:56:57.580Z,97525.50
2023-02-21T07:59:30.437Z,97521.14
2023-02-21T08:02:03.035Z,97520.14
2023-02-21T08:04:35.517Z,97526.93
2023-02-21T08:07:09.555Z,97527.80
2023-02-21T08:09:43.072Z,97531.95
2023-02-21T08:12:15.265Z,97530.33
2023-02-21T08:14:47.363Z,97530.33
2023-02-21T08:17:20.204Z,97527.78
2023-02-21T08:19:53.414Z,97526.11
2023-02-21T08:22:25.815Z,97533.69
2023-02-21T08:24:57.867Z,97535.30
2023-02-21T08:27:30.515Z,97528.48
2023-02-21T08:30:03.171Z,97527.55
2023-02-21T08:32:36.798Z,97531.80
2023-02-21T08:35:09.660Z,97530.92
2023-02-21T08:37:45.009Z,97524.96
2023-02-21T08:40:19.542Z,97526.39
2023-02-21T08:42:53.960Z,97529.66
2023-02-21T08:45:28.321Z,97530.45
2023-02-21T08:48:02.086Z,97532.20
2023-02-21T08:50:34.995Z,97540.62
2023-02-21T08:53:09.066Z,97544.84
2023-02-21T08:55:41.106Z,97543.11
2023-02-21T08:58:13.969Z,97532.16
2023-02-21T09:00:46.487Z,97544.02
2023-02-21T09:03:18.845Z,97539.69
2023-02-21T09:05:50.990Z,97540.38
2023-02-21T09:08:24.651Z,97537.58
2023-02-21T09:11:02.993Z,97537.27
2023-02-21T09:13:37.634Z,97541.91
2023-02-21T09:16:09.918Z,97541.42
2023-02-21T09:18:42.356Z,97535.19
2023-02-21T09:21:15.219Z,97541.11
2023-02-21T09:23:47.760Z,97539.57
2023-02-21T09:26:20.258Z,97545.22
2023-02-21T09:28:54.027Z,97544.72
2023-02-21T09:31:27.145Z,97543.16
2023-02-21T09:33:59.439Z,97532.96
2023-02-21T09:36:31.856Z,97534.52
2023-02-21T09:39:06.816Z,97537.72
2023-02-21T09:41:39.593Z,97536.51
2023-02-21T09:44:15.195Z,97543.22
2023-02-21T09:46:49.950Z,97536.95
2023-02-21T09:49:28.187Z,97536.67
2023-02-21T09:52:02.502Z,97535.37
2023-02-21T09:54:38.244Z,97532.48
2023-02-21T09:57:19.600Z,97533.03
2023-02-21T09:59:51.832Z,97539.39
2023-02-21T10:02:32.935Z,97541.84
2023-02-21T10:05:30.497Z,97535.38
2023-02-21T10:08:18.064Z,97543.05
2023-02-21T10:10:54.216Z,97540.34
2023-02-21T10:13:38.742Z,97534.88
2023-02-21T10:16:14.258Z,97536.83
2023-02-21T10:18:53.208Z,97539.48
2023-02-21T10:21:28.257Z,97539.25
2023-02-21T10:24:04.519Z,97544.70
2023-02-21T10:26:40.876Z,97546.41
2023-02-21T10:29:27.913Z,97546.52
2023-02-21T10:32:04.496Z,97548.35
2023-02-21T10:34:38.680Z,97548.69
2023-02-21T10:37:40.935Z,97557.39
2023-02-21T10:40:46.960Z,97560.70
2023-02-21T10:43:24.883Z,97561.84
2023-02-21T10:46:06.640Z,97569.45
2023-02-21T10:48:42.150Z,97571.30
2023-02-21T10:51:21.269Z,97571.00
2023-02-21T10:53:53.588Z,97577.13
2023-02-21T10:56:30.712Z,97581.22
2023-02-21T10:59:08.341Z,97580.64
2023-02-21T11:01:46.691Z,97584.14
2023-02-21T11:04:24.942Z,97589.34
2023-02-21T11:07:09.344Z,97600.84
2023-02-21T11:09:47.210Z,97591.73
2023-02-21T11:12:27.971Z,97593.77
2023-02-21T11:15:04.286Z,97604.30
2023-02-21T11:17:37.176Z,97599.56
2023-02-21T11:20:19.200Z,97598.95
2023-02-21T11:22:53.019Z,97588.11
2023-02-21T11:25:29.002Z,97597.55
2023-02-21T11:28:05.337Z,97600.98
2023-02-21T11:30:40.967Z,97609.58
2023-02-21T11:33:13.725Z,97610.28
2023-02-21T11:35:55.016Z,97610.02
2023-02-21T11:38:43.621Z,97611.23
2023-02-21T11:41:25.684Z,97621.09
2023-02-21T11:43:58.820Z,97610.00
2023-02-21T11:46:52.761Z,97626.20
2023-02-21T11:49:31.235Z,97626.14
2023-02-21T11:52:10.128Z,97622.05
2023-02-21T11:54:42.713Z,97630.55
2023-02-21T11:57:48.201Z,97624.05
2023-02-21T12:00:37.837Z,97626.14
2023-02-21T12:03:32.333Z,97634.47
2023-02-21T12:06:29.437Z,97630.31
2023-02-21T12:09:05.289Z,97637.02
2023-02-21T12:11:49.955Z,97630.86
2023-02-21T12:14:34.830Z,97640.19
2023-02-21T12:17:29.009Z,97636.63
2023-02-21T12:20:34.090Z,97639.91
2023-02-21T12:23:09.991Z,97651.92
2023-02-21T12:26:18.354Z,97657.76
2023-02-21T12:29:06.192Z,97661.22
2023-02-21T12:31:51.084Z,97666.12
2023-02-21T12:34:39.209Z,97667.24
2023-02-21T12:37:34.159Z,97670.64
2023-02-21T12:40:26.279Z,97681.34
2023-02-21T12:43:23.523Z,97684.16
2023-02-21T12:46:01.853Z,97689.45
2023-02-21T12:48:37.773Z,97693.65
2023-02-21T12:51:13.555Z,97694.05
2023-02-21T12:53:49.396Z,97698.41
2023-02-21T12:56:24.873Z,97701.75
2023-02-21T12:59:05.050Z,97704.23
2023-02-21T13:01:43.480Z,97703.33
2023-02-21T13:04:38.693Z,97709.86
2023-02-21T13:07:19.262Z,97712.17
2023-02-21T13:09:58.442Z,97710.26
2023-02-21T13:12:33.520Z,97724.88
2023-02-21T13:15:08.749Z,97730.16
2023-02-21T13:17:43.175Z,97726.84
2023-02-21T13:20:18.822Z,97728.25
2023-02-21T13:23:10.222Z,97721.81
2023-02-21T13:26:16.695Z,97734.38
2023-02-21T13:28:55.131Z,97735.22
2023-02-21T13:31:32.125Z,97729.55
2023-02-21T13:34:06.509Z,97746.15
2023-02-21T13:36:47.709Z,97756.45
2023-02-21T13:39:23.262Z,97750.07
2023-02-21T13:41:58.890Z,97763.09
2023-02-21T13:44:34.818Z,97762.07
2023-02-21T13:47:16.572Z,97762.81
2023-02-21T13:49:55.280Z,97764.17
2023-02-21T13:52:30.250Z,97777.77
2023-02-21T13:55:21.390Z,97786.41
2023-02-21T13:57:58.504Z,97786.06
2023-02-21T14:00:34.100Z,97804.13
2023-02-21T14:03:15.887Z,97815.90
2023-02-21T14:05:52.867Z,97815.71
2023-02-21T14:08:35.023Z,97820.82
2023-02-21T14:11:10.608Z,97812.13
2023-02-21T14:13:49.106Z,97838.76
2023-02-21T14:16:33.396Z,97829.80
2023-02-21T14:19:12.149Z,97837.84
2023-02-21T14:21:50.362Z,97845.64
2023-02-21T14:24:26.027Z,97849.98
2023-02-21T14:27:00.399Z,97858.50
2023-02-21T14:29:36.004Z,97856.24
2023-02-21T14:32:14.986Z,97869.03
2023-02-21T14:34:55.198Z,97869.98
2023-02-21T14:37:44.041Z,97876.03
2023-02-21T14:40:28.221Z,97879.52
2023-02-21T14:43:26.253Z,97889.87
2023-02-21T14:46:35.751Z,97900.91
2023-02-21T14:49:37.835Z,97903.47
2023-02-21T14:52:29.194Z,97911.15
2023-02-21T14:55:22.444Z,97912.91
2023-02-21T14:58:16.835Z,97918.79
2023-02-21T15:01:01.168Z,97916.27
2023-02-21T15:03:36.691Z,97929.89
2023-02-21T15:06:16.156Z,97933.29
2023-02-21T15:08:51.162Z,97932.50
2023-02-21T15:11:34.011Z,97938.44
2023-02-21T15:14:24.562Z,97949.45
2023-02-21T15:16:59.953Z,97946.06
2023-02-21T15:19:37.076Z,97953.72
2023-02-21T15:22:28.846Z,97956.31
2023-02-21T15:25:13.794Z,97967.31
2023-02-21T15:27:52.433Z,97981.69
2023-02-21T15:30:28.403Z,97976.65
2023-02-21T15:33:03.414Z,97981.73
2023-02-21T15:35:38.696Z,97979.22
2023-02-21T15:38:22.734Z,97980.87
2023-02-21T15:40:58.444Z,97988.48
2023-02-21T15:43:39.332Z,97994.41
2023-02-21T15:46:14.514Z,97996.95
2023-02-21T15:48:47.844Z,98007.95
2023-02-21T15:51:20.618Z,98013.86
2023-02-21T15:54:10.538Z,98018.08
2023-02-21T15:56:43.493Z,98019.79
2023-02-21T15:59:29.693Z,98018.94
2023-02-21T16:02:14.181Z,98032.50
2023-02-21T16:04:48.804Z,98035.03
2023-02-21T16:07:37.569Z,98045.16
2023-02-21T16:10:13.549Z,98051.92
2023-02-21T16:12:49.383Z,98062.08
2023-02-21T16:15:25.239Z,98055.31
2023-02-21T16:18:04.083Z,98069.69
2023-02-21T16:20:39.384Z,98075.59
2023-02-21T16:23:33.789Z,98076.47
2023-02-21T16:26:17.200Z,98081.55
2023-02-21T16:28:49.577Z,98079.87
2023-02-21T16:31:34.207Z,98113.69
2023-02-21T16:34:07.876Z,98088.33
2023-02-21T16:36:40.840Z,98097.64
2023-02-21T16:39:13.509Z,98096.78
2023-02-21T16:41:46.221Z,98101.05
2023-02-21T16:44:18.424Z,98109.48
2023-02-21T16:46:53.123Z,98096.81
2023-02-21T16:49:25.570Z,98105.27
2023-02-21T16:51:58.087Z,98111.20
2023-02-21T16:54:30.527Z,98105.27
2023-02-21T16:57:02.894Z,98103.55
2023-02-21T16:59:36.274Z,98116.24
2023-02-21T17:02:09.360Z,98120.45
2023-02-21T17:04:41.112Z,98112.86
2023-02-21T17:07:15.126Z,98146.65
2023-02-21T17:09:47.443Z,98127.21
2023-02-21T17:12:20.465Z,98132.28
2023-02-21T17:14:52.552Z,98128.09
2023-02-21T17:17:25.053Z,98122.14
2023-02-21T17:19:57.004Z,98146.65
2023-02-21T17:22:29.292Z,98159.33
2023-02-21T17:25:01.795Z,98139.88
2023-02-21T17:27:33.998Z,98154.28
2023-02-21T17:30:08.435Z,98144.09
2023-02-21T17:32:41.069Z,98154.24
2023-02-21T17:35:15.551Z,98166.09
2023-02-21T17:37:49.890Z,98160.14
2023-02-21T17:40:23.621Z,98154.19
2023-02-21T17:42:57.368Z,98156.70
2023-02-21T17:45:29.984Z,98163.46
2023-02-21T17:48:03.020Z,98155.02
2023-02-21T17:50:35.453Z,98164.30
2023-02-21T17:53:09.093Z,98171.06
2023-02-21T17:55:41.289Z,98166.02
2023-02-21T17:58:13.485Z,98172.75
2023-02-21T18:00:45.767Z,98176.19
2023-02-21T18:03:18.380Z,98177.02
2023-02-21T18:05:51.181Z,98182.08
2023-02-21T18:08:23.474Z,98187.97
2023-02-21T18:10:55.829Z,98190.52
2023-02-21T18:13:28.211Z,98192.20
2023-02-21T18:16:01.591Z,98193.09
2023-02-21T18:18:35.302Z,98199.02
2023-02-21T18:21:08.686Z,98197.33
2023-02-21T18:23:41.616Z,98211.68
2023-02-21T18:26:15.811Z,98219.32
2023-02-21T18:28:48.980Z,98220.15
2023-02-21T18:31:21.837Z,98215.95
2023-02-21T18:33:54.016Z,98217.63
2023-02-21T18:36:26.593Z,98223.55
2023-02-21T18:38:59.153Z,98215.91
2023-02-21T18:41:33.041Z,98217.57
2023-02-21T18:44:05.062Z,98226.05
2023-02-21T18:46:38.853Z,98235.34
2023-02-21T18:49:13.312Z,98247.14
2023-02-21T18:51:45.435Z,98247.16
2023-02-21T18:54:19.023Z,98251.34
2023-02-21T18:56:53.825Z,98256.48
2023-02-21T18:59:26.278Z,98253.88
2023-02-21T19:01:58.565Z,98258.16
2023-02-21T19:04:31.324Z,98261.45
2023-02-21T19:07:08.418Z,98290.16
2023-02-21T19:09:40.845Z,98262.23
2023-02-21T19:12:12.742Z,98263.14
2023-02-21T19:14:45.234Z,98258.84
2023-02-21T19:17:17.471Z,98269.82
2023-02-21T19:19:49.513Z,98268.13
2023-02-21T19:22:22.129Z,98273.25
2023-02-21T19:24:54.148Z,98284.23
2023-02-21T19:27:26.311Z,98292.69
2023-02-21T19:29:58.529Z,98280.80
2023-02-21T19:32:30.894Z,98279.91
2023-02-21T19:35:03.277Z,98284.07
2023-02-21T19:37:36.274Z,98293.30
2023-02-21T19:40:09.308Z,98291.59
2023-02-21T19:42:41.935Z,98307.63
2023-02-21T19:45:13.942Z,98310.98
2023-02-21T19:47:47.079Z,98307.54
2023-02-21T19:50:19.797Z,98300.73
2023-02-21T19:52:57.514Z,98312.44
2023-02-21T19:55:31.252Z,98314.13
2023-02-21T19:58:04.826Z,98315.88
2023-02-21T20:00:39.823Z,98316.73
2023-02-21T20:03:12.549Z,98322.58
2023-02-21T20:05:44.964Z,98317.46
2023-02-21T20:08:17.246Z,98340.26
2023-02-21T20:10:49.166Z,98327.55
2023-02-21T20:13:21.912Z,98309.75
2023-02-21T20:15:54.242Z,98318.19
2023-02-21T20:18:26.483Z,98320.64
2023-02-21T20:20:58.726Z,98315.59
2023-02-21T20:23:30.965Z,98334.23
2023-02-21T20:26:03.030Z,98324.03
2023-02-21T20:28:35.488Z,98332.31
2023-02-21T20:31:09.073Z,98334.80
2023-02-21T20:33:41.537Z,98339.08
2023-02-21T20:36:13.967Z,98339.90
2023-02-21T20:38:45.914Z,98352.59
2023-02-21T20:41:18.600Z,98349.26
2023-02-21T20:43:50.763Z,98347.63
2023-02-21T20:46:26.494Z,98351.78
2023-02-21T20:49:02.087Z,98355.09
2023-02-21T20:51:36.748Z,98353.38
2023-02-21T20:54:11.258Z,98359.41
2023-02-21T20:56:43.637Z,98358.58
2023-02-21T20:59:24.114Z,98353.28
2023-02-21T21:01:58.083Z,98353.28
2023-02-21T21:04:32.989Z,98371.00
2023-02-21T21:07:08.414Z,98363.27
2023-02-21T21:09:40.547Z,98373.48
2023-02-21T21:12:15.896Z,98369.13
2023-02-21T21:14:49.762Z,98360.71
2023-02-21T21:17:22.883Z,98381.72
2023-02-21T21:19:55.410Z,98379.06
2023-02-21T21:22:28.980Z,98381.59
2023-02-21T21:25:00.840Z,98378.02
2023-02-21T21:27:33.096Z,98391.56
2023-02-21T21:30:07.498Z,98388.92
2023-02-21T21:32:41.388Z,98389.18
2023-02-21T21:35:14.870Z,98390.75
2023-02-21T21:37:47.060Z,98399.14
2023-02-21T21:40:19.199Z,98396.50
2023-02-21T21:42:52.996Z,98402.31
2023-02-21T21:45:27.627Z,98415.80
2023-02-21T21:47:59.604Z,98405.77
2023-02-21T21:50:31.539Z,98412.34
2023-02-21T21:53:03.924Z,98405.47
2023-02-21T21:55:36.572Z,98414.61
2023-02-21T21:58:14.232Z,98412.92
2023-02-21T22:00:46.972Z,98422.97
2023-02-21T22:03:19.291Z,98431.80
2023-02-21T22:05:51.389Z,98427.34
2023-02-21T22:08:25.935Z,98426.52
2023-02-21T22:10:59.894Z,98431.64
2023-02-21T22:13:33.402Z,98439.98
2023-02-21T22:16:06.019Z,98438.31
2023-02-21T22:18:38.285Z,98444.30
2023-02-21T22:21:11.898Z,98449.33
2023-02-21T22:23:44.309Z,98450.16
2023-02-21T22:26:21.335Z,98447.50
2023-02-21T22:28:53.650Z,98454.38
2023-02-21T22:31:27.442Z,98454.37
2023-02-21T22:34:01.297Z,98455.13
2023-02-21T22:36:34.967Z,98463.41
2023-02-21T22:39:09.369Z,98455.83
2023-02-21T22:41:41.619Z,98461.66
2023-02-21T22:44:13.522Z,98483.52
2023-02-21T22:46:48.313Z,98474.25
2023-02-21T22:49:20.243Z,98475.09
2023-02-21T22:51:55.462Z,98475.80
2023-02-21T22:54:29.509Z,98464.78
2023-02-21T22:57:07.316Z,98473.16
2023-02-21T22:59:40.342Z,98482.55
2023-02-21T23:02:12.879Z,98480.08
2023-02-21T23:04:46.831Z,98484.27
2023-02-21T23:07:20.465Z,98484.21
2023-02-21T23:09:52.978Z,98505.27
2023-02-21T23:12:25.406Z,98498.38
2023-02-21T23:14:57.338Z,98488.99
2023-02-21T23:17:29.305Z,98494.91
2023-02-21T23:20:01.339Z,98505.64
2023-02-21T23:22:34.985Z,98502.38
2023-02-21T23:25:08.624Z,98509.89
2023-02-21T23:27:40.641Z,98503.12
2023-02-21T23:30:13.307Z,98502.95
2023-02-21T23:32:46.469Z,98505.34
2023-02-21T23:35:17.880Z,98516.59
2023-02-21T23:37:51.502Z,98510.02
2023-02-21T23:40:26.624Z,98512.34
2023-02-21T23:42:58.730Z,98515.03
2023-02-21T23:45:31.841Z,98509.80
2023-02-21T23:48:03.744Z,98519.69
2023-02-21T23:50:37.670Z,98520.45
2023-02-21T23:53:09.845Z,98529.65
2023-02-21T23:55:42.531Z,98543.09
2023-02-21T23:58:17.370Z,98529.58
